sim
Sign-in with your pilot id or email,
or register
Callsign
Passwort

Schedule Details

Flight Number: RYR3633 (1)
Departure: Bremen Airport (EDDW) at 17:30
Arrival: London Stansted Airport (EGSS) at 19:00
Route: Ryanair Passenger Schedule. Enter filed route here before submitting Pirep.

Weather Information
Getting current METAR information for EDDW 111950Z VRB01KT 9999 FEW024TCU 14/12 Q1025 NOSIG
Getting current METAR information for EGSS 111950Z AUTO 03003KT 9999 NCD 14/09 Q1028

Schedule Frequency

Route Map